Time;durP1;ratioP1;P1;durP2;ratioP2;P2;SDS_P1;SDS_P2;PMS_P1;PMS_P2;Temp;Humidity;BMP_temperature;BMP_pressure;BME280_temperature;BME280_humidity;BME280_pressure;Samples;Min_cycle;Max_cycle;Signal;HPM_P1;HPM_P2
2023/03/18 00:01:11;;;;;;;;;;;;;;;2.89;69.85;99983.75;5069952;28;19920;-79
2023/03/18 00:03:37;;;;;;;;;;;;;;;2.89;69.92;99989.28;5054744;28;19985;-79
2023/03/18 00:06:14;;;;;;;;;;;;;;;2.66;70.02;99988.66;5055224;28;20356;-79
2023/03/18 00:08:40;;;;;;;;;;;;;;;2.56;71.12;99983.06;5074853;28;19908;-79
2023/03/18 00:11:07;;;;;;;;;;;;;;;2.41;72.13;99988.50;5073374;28;19919;-79
2023/03/18 00:13:33;;;;;;;;;;;;;;;2.37;72.98;99980.75;5072983;28;19932;-79
2023/03/18 00:16:03;;;;;;;;;;;;;;;2.63;72.88;99980.88;5056947;28;19924;-79
2023/03/18 00:18:28;;;;;;;;;;;;;;;2.46;73.23;99978.31;5074187;28;19908;-79
2023/03/18 00:20:53;;;;;;;;;;;;;;;2.69;73.27;99978.16;5073221;28;19923;-79
2023/03/18 00:23:20;;;;;;;;;;;;;;;2.97;72.56;99976.03;5072929;28;19998;-79
2023/03/18 00:25:46;;;;;;;;;;;;;;;2.84;72.78;99978.22;5072442;28;19919;-79
2023/03/18 00:28:11;;;;;;;;;;;;;;;2.90;72.93;99976.28;5070921;28;19920;-79
2023/03/18 00:30:38;;;;;;;;;;;;;;;2.99;72.25;99974.69;5074409;28;19908;-79
2023/03/18 00:33:04;;;;;;;;;;;;;;;2.99;72.38;99965.53;5063354;28;19973;-79
2023/03/18 00:35:29;;;;;;;;;;;;;;;3.22;71.66;99967.81;5072963;28;20386;-79
2023/03/18 00:37:56;;;;;;;;;;;;;;;3.42;71.63;99960.66;5065852;28;19912;-79
2023/03/18 00:40:28;;;;;;;;;;;;;;;3.63;70.40;99961.50;5054052;28;19924;-79
2023/03/18 00:43:09;;;;;;;;;;;;;;;3.74;70.39;99951.25;5109618;27;19913;-79
2023/03/18 00:45:39;;;;;;;;;;;;;;;3.79;69.28;99959.56;5124144;27;19916;-78
2023/03/18 00:48:04;;;;;;;;;;;;;;;3.27;72.03;99955.94;5109462;28;19965;-78
2023/03/18 00:50:30;;;;;;;;;;;;;;;3.17;72.27;99958.66;5109481;28;19912;-78
2023/03/18 00:52:55;;;;;;;;;;;;;;;2.60;74.86;99959.34;5109728;28;19912;-79
2023/03/18 00:55:20;;;;;;;;;;;;;;;3.02;74.72;99951.19;5109425;28;20417;-78
2023/03/18 00:57:46;;;;;;;;;;;;;;;2.97;74.36;99945.63;5108215;28;20060;-78
2023/03/18 01:00:12;;;;;;;;;;;;;;;2.76;75.53;99946.41;5109348;28;19919;-79
2023/03/18 01:02:37;;;;;;;;;;;;;;;3.03;74.90;99948.13;5107314;28;19916;-78
2023/03/18 01:05:03;;;;;;;;;;;;;;;2.80;75.24;99950.28;5107735;28;20060;-78
2023/03/18 01:07:28;;;;;;;;;;;;;;;2.55;75.56;99945.50;5107791;28;20011;-78
2023/03/18 01:09:54;;;;;;;;;;;;;;;2.44;77.12;99943.81;5107922;28;19912;-78
2023/03/18 01:12:19;;;;;;;;;;;;;;;2.44;77.77;99947.38;5130142;27;19916;-79
2023/03/18 01:14:44;;;;;;;;;;;;;;;2.59;78.14;99943.88;5089556;28;19923;-79
2023/03/18 01:17:10;;;;;;;;;;;;;;;2.53;77.62;99947.69;5088786;28;19912;-79
2023/03/18 01:19:36;;;;;;;;;;;;;;;2.63;76.80;99946.94;5088731;28;20359;-78
2023/03/18 01:22:02;;;;;;;;;;;;;;;2.78;74.96;99940.63;5102082;28;19927;-79
2023/03/18 01:24:27;;;;;;;;;;;;;;;2.37;75.93;99936.59;5091786;28;20307;-78
2023/03/18 01:26:53;;;;;;;;;;;;;;;2.47;76.36;99940.50;5097267;28;19923;-78
2023/03/18 01:29:19;;;;;;;;;;;;;;;2.62;75.89;99934.22;5093173;28;19963;-78
2023/03/18 01:31:45;;;;;;;;;;;;;;;2.60;75.77;99940.00;5093259;28;19965;-78
2023/03/18 01:34:11;;;;;;;;;;;;;;;2.30;76.75;99932.41;5108837;28;19963;-79
2023/03/18 01:36:36;;;;;;;;;;;;;;;2.26;76.99;99936.81;5104564;28;19916;-79
2023/03/18 01:39:02;;;;;;;;;;;;;;;2.26;76.86;99931.28;5123868;27;20014;-78
2023/03/18 01:41:27;;;;;;;;;;;;;;;2.16;76.78;99932.06;5091248;28;19935;-79
2023/03/18 01:43:54;;;;;;;;;;;;;;;2.32;76.05;99925.53;5106995;28;19916;-79
2023/03/18 01:46:29;;;;;;;;;;;;;;;2.26;76.30;99923.00;5106977;28;19930;-79
2023/03/18 01:48:55;;;;;;;;;;;;;;;2.22;76.44;99919.94;5095067;28;19916;-78
2023/03/18 01:51:20;;;;;;;;;;;;;;;2.29;76.89;99914.19;5107110;28;19955;-79
2023/03/18 01:53:47;;;;;;;;;;;;;;;2.26;76.90;99921.06;5095531;28;19966;-78
2023/03/18 01:56:13;;;;;;;;;;;;;;;2.48;76.71;99920.06;5094839;28;20447;-78
2023/03/18 01:58:41;;;;;;;;;;;;;;;2.58;76.17;99925.63;5094485;28;19920;-78
2023/03/18 02:01:11;;;;;;;;;;;;;;;2.78;75.98;99919.34;5093606;28;19927;-78
2023/03/18 02:03:38;;;;;;;;;;;;;;;2.97;74.77;99907.78;5092466;28;19938;-78
2023/03/18 02:06:03;;;;;;;;;;;;;;;3.10;74.05;99909.19;5090261;28;19916;-78
2023/03/18 02:08:29;;;;;;;;;;;;;;;3.14;74.05;99917.75;5092990;28;20003;-78
2023/03/18 02:10:54;;;;;;;;;;;;;;;3.30;73.09;99913.91;5092396;28;20344;-78
2023/03/18 02:13:20;;;;;;;;;;;;;;;3.13;73.95;99905.84;5091609;28;20355;-78
2023/03/18 02:15:51;;;;;;;;;;;;;;;3.25;73.23;99908.38;5094353;28;19965;-78
2023/03/18 02:18:26;;;;;;;;;;;;;;;3.45;72.56;99912.25;5094646;28;19912;-78
2023/03/18 02:21:10;;;;;;;;;;;;;;;3.28;72.58;99913.34;5094222;28;19919;-78
2023/03/18 02:23:54;;;;;;;;;;;;;;;2.66;75.03;99914.06;5093132;28;19912;-78
2023/03/18 02:26:45;;;;;;;;;;;;;;;2.48;76.56;99917.31;5073629;28;19928;-79
2023/03/18 02:29:13;;;;;;;;;;;;;;;2.82;75.30;99916.88;5085771;28;19916;-78
2023/03/18 02:31:41;;;;;;;;;;;;;;;2.70;76.05;99916.28;5094111;28;20390;-78
2023/03/18 02:34:07;;;;;;;;;;;;;;;2.87;75.06;99914.09;5094105;28;19949;-76
2023/03/18 02:36:34;;;;;;;;;;;;;;;2.73;74.99;99919.34;5086151;28;19916;-78
2023/03/18 02:39:00;;;;;;;;;;;;;;;2.64;75.45;99913.50;5073833;28;19917;-78
2023/03/18 02:41:27;;;;;;;;;;;;;;;2.74;73.92;99914.63;5078064;28;19943;-78
2023/03/18 02:43:53;;;;;;;;;;;;;;;2.44;74.84;99917.00;5093194;28;19923;-78
2023/03/18 02:46:30;;;;;;;;;;;;;;;2.43;74.96;99915.34;5093461;28;19916;-78
2023/03/18 02:48:56;;;;;;;;;;;;;;;2.32;75.49;99911.72;5092870;28;19982;-79
2023/03/18 02:51:22;;;;;;;;;;;;;;;2.05;76.39;99920.97;5092564;28;20382;-78
2023/03/18 02:53:47;;;;;;;;;;;;;;;1.88;76.98;99923.91;5092279;28;19916;-79
2023/03/18 02:56:13;;;;;;;;;;;;;;;1.94;77.13;99927.53;5092527;28;19912;-79
2023/03/18 02:58:38;;;;;;;;;;;;;;;2.00;76.76;99923.69;5099239;28;20419;-79
2023/03/18 03:01:05;;;;;;;;;;;;;;;2.22;75.80;99920.75;5093294;28;19917;-78
2023/03/18 03:03:30;;;;;;;;;;;;;;;2.32;74.90;99925.53;5093658;28;19990;-78
2023/03/18 03:05:56;;;;;;;;;;;;;;;2.22;75.20;99923.53;5092288;28;19967;-78
2023/03/18 03:08:21;;;;;;;;;;;;;;;2.20;74.84;99919.41;5092623;28;20003;-79
2023/03/18 03:10:49;;;;;;;;;;;;;;;2.13;74.63;99924.31;5093333;28;19912;-78
2023/03/18 03:13:15;;;;;;;;;;;;;;;1.97;75.35;99929.75;5092279;28;19916;-79
2023/03/18 03:15:41;;;;;;;;;;;;;;;2.08;75.51;99922.34;5093209;28;19912;-78
2023/03/18 03:18:07;;;;;;;;;;;;;;;1.99;75.65;99924.78;5091071;28;19920;-78
2023/03/18 03:20:34;;;;;;;;;;;;;;;2.01;75.45;99927.28;5093224;28;19912;-78
2023/03/18 03:23:00;;;;;;;;;;;;;;;2.12;75.52;99931.78;5091729;28;20012;-79
2023/03/18 03:25:26;;;;;;;;;;;;;;;2.11;75.11;99924.56;5093049;28;19916;-78
2023/03/18 03:27:52;;;;;;;;;;;;;;;2.22;74.68;99931.00;5080992;28;20338;-78
2023/03/18 03:30:17;;;;;;;;;;;;;;;2.16;74.51;99927.38;5092002;28;19919;-78
2023/03/18 03:32:43;;;;;;;;;;;;;;;2.24;74.51;99923.28;5091694;28;19912;-79
2023/03/18 03:35:11;;;;;;;;;;;;;;;2.10;75.50;99925.66;5092934;28;19919;-79
2023/03/18 03:37:36;;;;;;;;;;;;;;;2.04;75.60;99926.75;5090597;28;19931;-79
2023/03/18 03:40:04;;;;;;;;;;;;;;;2.07;75.27;99929.81;5091413;28;19916;-79
2023/03/18 03:42:30;;;;;;;;;;;;;;;2.01;75.80;99930.88;5092589;28;20382;-79
2023/03/18 03:44:55;;;;;;;;;;;;;;;1.76;76.85;99926.03;5092824;28;19916;-79
2023/03/18 03:47:20;;;;;;;;;;;;;;;1.69;77.47;99929.03;5107751;27;19925;-79
2023/03/18 03:49:46;;;;;;;;;;;;;;;1.78;77.33;99937.63;5078277;28;20374;-79
2023/03/18 03:52:12;;;;;;;;;;;;;;;1.64;77.74;99937.22;5090396;28;19916;-78
2023/03/18 03:54:40;;;;;;;;;;;;;;;1.77;78.19;99934.03;5091285;28;19918;-79
2023/03/18 03:57:06;;;;;;;;;;;;;;;1.95;77.09;99931.94;5092481;28;20379;-79
2023/03/18 03:59:32;;;;;;;;;;;;;;;2.03;76.76;99939.72;5092405;28;19916;-78
2023/03/18 04:01:57;;;;;;;;;;;;;;;1.95;77.03;99937.47;5080815;28;20011;-79
2023/03/18 04:04:22;;;;;;;;;;;;;;;1.72;77.21;99938.66;5089064;28;19923;-79
2023/03/18 04:06:48;;;;;;;;;;;;;;;1.77;77.73;99938.72;5092310;28;19985;-79
2023/03/18 04:09:14;;;;;;;;;;;;;;;1.90;77.35;99940.19;5092351;28;19963;-79
2023/03/18 04:11:40;;;;;;;;;;;;;;;1.76;77.29;99950.84;5092281;28;19948;-79
2023/03/18 04:14:05;;;;;;;;;;;;;;;1.74;77.18;99951.09;5091564;28;19916;-79
2023/03/18 04:16:31;;;;;;;;;;;;;;;1.47;78.14;99953.91;5091845;28;19922;-80
2023/03/18 04:18:56;;;;;;;;;;;;;;;1.48;77.98;99956.41;5090999;28;19916;-80
2023/03/18 04:21:22;;;;;;;;;;;;;;;1.52;78.01;99957.56;5091438;28;19962;-80
2023/03/18 04:23:47;;;;;;;;;;;;;;;1.43;78.74;99963.81;5092219;28;20379;-80
2023/03/18 04:26:12;;;;;;;;;;;;;;;1.58;78.84;99965.88;5076254;28;19924;-79
2023/03/18 04:28:38;;;;;;;;;;;;;;;1.39;79.69;99963.50;5090316;28;20003;-80
2023/03/18 04:31:03;;;;;;;;;;;;;;;1.54;79.67;99966.38;5090842;28;20279;-79
2023/03/18 04:33:29;;;;;;;;;;;;;;;1.62;78.85;99967.00;5090913;28;19947;-79
2023/03/18 04:35:55;;;;;;;;;;;;;;;1.52;78.88;99960.31;5090851;28;20390;-79
2023/03/18 04:38:20;;;;;;;;;;;;;;;1.54;79.26;99966.38;5090265;28;19990;-80
2023/03/18 04:40:45;;;;;;;;;;;;;;;1.51;79.42;99968.84;5091678;28;19919;-79
2023/03/18 04:43:11;;;;;;;;;;;;;;;1.49;79.19;99966.34;5083805;28;19935;-79
2023/03/18 04:45:36;;;;;;;;;;;;;;;1.40;79.84;99965.16;5091804;28;19919;-80
2023/03/18 04:48:03;;;;;;;;;;;;;;;1.47;79.70;99967.69;5091833;28;20028;-79
2023/03/18 04:50:28;;;;;;;;;;;;;;;1.52;79.13;99965.81;5091792;28;19912;-79
2023/03/18 04:52:54;;;;;;;;;;;;;;;1.59;79.23;99971.13;5090591;28;19970;-79
2023/03/18 04:55:20;;;;;;;;;;;;;;;1.66;79.18;99973.66;5071830;28;19978;-79
2023/03/18 04:57:45;;;;;;;;;;;;;;;1.64;79.21;99976.69;5090060;28;19918;-78
2023/03/18 05:00:13;;;;;;;;;;;;;;;1.75;78.80;99974.84;5091545;28;20006;-78
2023/03/18 05:02:39;;;;;;;;;;;;;;;1.86;78.46;99978.50;5086527;28;20394;-78
2023/03/18 05:05:04;;;;;;;;;;;;;;;1.88;77.94;99975.47;5092026;28;19919;-79
2023/03/18 05:07:30;;;;;;;;;;;;;;;1.77;78.76;99974.59;5090238;28;19970;-79
2023/03/18 05:09:56;;;;;;;;;;;;;;;1.82;78.69;99977.38;5087218;28;20363;-79
2023/03/18 05:12:21;;;;;;;;;;;;;;;1.82;78.30;99972.69;5090838;28;19963;-78
2023/03/18 05:14:47;;;;;;;;;;;;;;;1.98;78.04;99970.03;5091763;28;20374;-78
2023/03/18 05:17:15;;;;;;;;;;;;;;;1.99;78.42;99965.34;5091764;28;19912;-78
2023/03/18 05:19:45;;;;;;;;;;;;;;;1.91;78.59;99962.00;5090315;28;19965;-78
2023/03/18 05:22:10;;;;;;;;;;;;;;;1.87;78.58;99963.63;5090232;28;20022;-78
2023/03/18 05:24:36;;;;;;;;;;;;;;;1.93;77.78;99972.75;5090511;28;20003;-78
2023/03/18 05:27:02;;;;;;;;;;;;;;;1.94;77.23;99963.41;5090716;28;20378;-78
2023/03/18 05:29:27;;;;;;;;;;;;;;;1.99;76.98;99977.22;5092314;28;19917;-79
2023/03/18 05:31:53;;;;;;;;;;;;;;;1.92;77.19;99976.59;5095399;28;20390;-79
2023/03/18 05:34:18;;;;;;;;;;;;;;;1.98;77.34;99975.56;5095348;28;19922;-79
2023/03/18 05:36:44;;;;;;;;;;;;;;;1.94;77.98;99983.53;5089305;28;19918;-78
2023/03/18 05:39:09;;;;;;;;;;;;;;;1.94;78.21;99979.94;5074971;28;19970;-79
2023/03/18 05:41:34;;;;;;;;;;;;;;;2.01;78.25;99980.53;5074877;28;20463;-79
2023/03/18 05:44:00;;;;;;;;;;;;;;;2.10;78.00;99980.88;5090685;28;19916;-79
2023/03/18 05:46:25;;;;;;;;;;;;;;;2.19;77.52;99981.22;5094966;28;19916;-79
2023/03/18 05:48:51;;;;;;;;;;;;;;;2.18;77.64;99990.59;5093667;28;19916;-80
2023/03/18 05:51:16;;;;;;;;;;;;;;;2.32;77.15;99985.41;5093723;28;20020;-76
2023/03/18 05:53:42;;;;;;;;;;;;;;;2.26;77.16;99992.84;5076246;28;20386;-79
2023/03/18 05:56:07;;;;;;;;;;;;;;;2.20;77.05;99993.94;5074692;28;19981;-74
2023/03/18 05:58:33;;;;;;;;;;;;;;;2.25;76.75;99988.41;5086513;28;19916;-72
2023/03/18 06:00:59;;;;;;;;;;;;;;;2.31;76.43;99987.38;5092972;28;20325;-72
2023/03/18 06:03:24;;;;;;;;;;;;;;;2.32;76.47;99989.03;5092608;28;19916;-73
2023/03/18 06:05:51;;;;;;;;;;;;;;;2.23;76.63;99988.72;5094245;28;19976;-72
2023/03/18 06:08:16;;;;;;;;;;;;;;;2.38;76.45;99992.66;5093870;28;20432;-71
2023/03/18 06:10:42;;;;;;;;;;;;;;;2.46;76.74;99985.78;5080828;28;20003;-72
2023/03/18 06:13:09;;;;;;;;;;;;;;;2.50;76.03;99995.19;5091080;28;19916;-72
2023/03/18 06:15:35;;;;;;;;;;;;;;;2.25;76.56;99985.66;5076758;28;19916;-72
2023/03/18 06:18:00;;;;;;;;;;;;;;;2.31;77.07;99989.28;5072962;28;20314;-71
2023/03/18 06:20:25;;;;;;;;;;;;;;;2.44;76.69;99983.28;5076200;28;19916;-73
2023/03/18 06:22:51;;;;;;;;;;;;;;;2.56;76.31;99982.22;5089553;28;19924;-71
2023/03/18 06:25:18;;;;;;;;;;;;;;;2.45;76.26;99981.38;5094006;28;19912;-70
2023/03/18 06:27:43;;;;;;;;;;;;;;;2.67;76.16;99976.50;5078947;28;19917;-69
2023/03/18 06:30:09;;;;;;;;;;;;;;;2.74;75.24;99980.94;5079454;28;19917;-71
2023/03/18 06:32:34;;;;;;;;;;;;;;;2.65;76.04;99977.88;5084821;28;19920;-71
2023/03/18 06:35:00;;;;;;;;;;;;;;;2.70;75.04;99986.16;5074140;28;19916;-71
2023/03/18 06:37:25;;;;;;;;;;;;;;;2.75;75.02;99988.97;5092981;28;19969;-71
2023/03/18 06:39:51;;;;;;;;;;;;;;;2.90;74.29;99990.13;5091827;28;20451;-70
2023/03/18 06:42:16;;;;;;;;;;;;;;;2.74;75.38;99978.16;5092826;28;19927;-69
2023/03/18 06:44:43;;;;;;;;;;;;;;;2.90;75.49;99981.81;5092761;28;19923;-71
2023/03/18 06:47:08;;;;;;;;;;;;;;;2.77;74.47;99983.16;5091595;28;19912;-71
2023/03/18 06:49:34;;;;;;;;;;;;;;;2.90;73.47;99979.91;5093515;28;19916;-71
2023/03/18 06:52:01;;;;;;;;;;;;;;;3.00;73.33;99976.34;5093675;28;19923;-71
2023/03/18 06:54:27;;;;;;;;;;;;;;;2.95;72.39;99979.06;5092166;28;19993;-71
2023/03/18 06:56:52;;;;;;;;;;;;;;;2.99;71.44;99980.19;5093872;28;20309;-73
2023/03/18 06:59:20;;;;;;;;;;;;;;;3.09;72.12;99976.63;5091952;28;19913;-74
2023/03/18 07:01:45;;;;;;;;;;;;;;;3.13;71.77;99985.22;5085418;28;19920;-70
2023/03/18 07:04:11;;;;;;;;;;;;;;;3.07;71.61;99979.66;5089926;28;20477;-73
2023/03/18 07:06:36;;;;;;;;;;;;;;;3.11;71.97;99979.13;5093328;28;19971;-76
2023/03/18 07:09:02;;;;;;;;;;;;;;;3.06;72.74;99975.22;5090804;28;19927;-80
2023/03/18 07:11:28;;;;;;;;;;;;;;;3.20;72.92;99971.97;5091799;28;19962;-72
2023/03/18 07:13:53;;;;;;;;;;;;;;;3.35;71.46;99966.47;5089987;28;19925;-70
2023/03/18 07:16:19;;;;;;;;;;;;;;;3.69;71.05;99961.50;5085900;28;20282;-68
2023/03/18 07:18:44;;;;;;;;;;;;;;;3.94;70.05;99968.94;5090784;28;19940;-69
2023/03/18 07:21:10;;;;;;;;;;;;;;;4.05;68.64;99958.72;5092396;28;20386;-70
2023/03/18 07:23:36;;;;;;;;;;;;;;;4.04;68.65;99966.16;5089003;28;19919;-67
2023/03/18 07:26:01;;;;;;;;;;;;;;;4.33;68.51;99956.41;5092517;28;19916;-70
2023/03/18 07:28:27;;;;;;;;;;;;;;;4.43;68.03;99955.56;5091379;28;19934;-70
2023/03/18 07:30:53;;;;;;;;;;;;;;;4.07;68.23;99960.06;5086092;28;19920;-74
2023/03/18 07:33:18;;;;;;;;;;;;;;;4.02;68.87;99960.09;5088569;28;20010;-67
2023/03/18 07:35:44;;;;;;;;;;;;;;;4.08;68.50;99958.13;5078947;28;20331;-71
2023/03/18 07:38:10;;;;;;;;;;;;;;;4.01;67.78;99949.28;5112545;27;19920;-73
2023/03/18 07:40:36;;;;;;;;;;;;;;;4.12;68.97;99958.41;5091970;28;19912;-71
2023/03/18 07:43:02;;;;;;;;;;;;;;;4.34;69.09;99958.91;5089286;28;19920;-76
2023/03/18 07:45:28;;;;;;;;;;;;;;;4.44;67.65;99958.06;5085573;28;20443;-74
2023/03/18 07:47:53;;;;;;;;;;;;;;;4.53;67.25;99961.06;5087470;28;19955;-75
2023/03/18 07:50:18;;;;;;;;;;;;;;;4.75;67.68;99959.88;5085733;28;20005;-75
2023/03/18 07:52:44;;;;;;;;;;;;;;;4.76;66.47;99956.00;5092551;28;19920;-77
2023/03/18 07:55:10;;;;;;;;;;;;;;;4.83;66.32;99956.53;5079640;28;20268;-75
2023/03/18 07:57:36;;;;;;;;;;;;;;;4.72;65.74;99955.72;5072973;28;20357;-77
2023/03/18 08:00:03;;;;;;;;;;;;;;;4.75;66.21;99962.66;5072037;28;19916;-74
2023/03/18 08:02:29;;;;;;;;;;;;;;;4.98;66.38;99963.09;5070546;28;19924;-75
2023/03/18 08:04:55;;;;;;;;;;;;;;;4.86;65.46;99955.09;5071824;28;19916;-75
2023/03/18 08:07:21;;;;;;;;;;;;;;;4.96;65.73;99949.50;5072314;28;19917;-75
2023/03/18 08:09:47;;;;;;;;;;;;;;;5.13;66.63;99942.75;5071977;28;19944;-75
2023/03/18 08:12:15;;;;;;;;;;;;;;;5.36;66.51;99943.16;5070673;28;19917;-75
2023/03/18 08:14:41;;;;;;;;;;;;;;;5.56;64.81;99943.00;5069575;28;20318;-74
2023/03/18 08:17:07;;;;;;;;;;;;;;;5.62;64.49;99955.75;5072907;28;19923;-74
2023/03/18 08:19:33;;;;;;;;;;;;;;;5.53;64.44;99949.13;5089640;28;19916;-74
2023/03/18 08:21:58;;;;;;;;;;;;;;;5.59;65.38;99961.03;5084096;28;19917;-74
2023/03/18 08:24:24;;;;;;;;;;;;;;;5.45;64.36;99960.84;5118038;27;20166;-75
2023/03/18 08:26:49;;;;;;;;;;;;;;;5.38;62.89;99960.34;5090342;28;20388;-75
2023/03/18 08:29:14;;;;;;;;;;;;;;;5.44;61.59;99967.50;5091492;28;19985;-75
2023/03/18 08:31:40;;;;;;;;;;;;;;;5.41;61.92;99966.13;5085970;28;19927;-74
2023/03/18 08:34:05;;;;;;;;;;;;;;;5.50;61.74;99971.94;5071853;28;19912;-74
2023/03/18 08:36:31;;;;;;;;;;;;;;;5.57;62.32;99961.31;5070291;28;19912;-75
2023/03/18 08:38:56;;;;;;;;;;;;;;;5.62;61.03;99963.22;5071338;28;20369;-74
2023/03/18 08:41:24;;;;;;;;;;;;;;;5.73;60.46;99962.03;5071847;28;20457;-74
2023/03/18 08:43:51;;;;;;;;;;;;;;;5.96;60.28;99959.59;5071618;28;19934;-75
2023/03/18 08:46:17;;;;;;;;;;;;;;;5.90;60.09;99960.75;5071577;28;19920;-75
2023/03/18 08:48:42;;;;;;;;;;;;;;;6.08;58.97;99961.19;5070977;28;19963;-74
2023/03/18 08:51:08;;;;;;;;;;;;;;;5.91;59.40;99956.84;5071522;28;19919;-74
2023/03/18 08:53:34;;;;;;;;;;;;;;;6.26;58.79;99957.66;5071664;28;19919;-74
2023/03/18 08:56:01;;;;;;;;;;;;;;;6.49;56.86;99959.94;5074594;28;20007;-74
2023/03/18 08:58:27;;;;;;;;;;;;;;;6.84;55.91;99968.97;5069823;28;19920;-75
2023/03/18 09:00:53;;;;;;;;;;;;;;;7.07;56.23;99963.66;5093769;28;20309;-74
2023/03/18 09:03:18;;;;;;;;;;;;;;;7.17;57.58;99969.06;5111758;28;20008;-74
2023/03/18 09:05:46;;;;;;;;;;;;;;;7.18;57.57;99969.91;5090666;28;19972;-74
2023/03/18 09:08:12;;;;;;;;;;;;;;;7.31;57.05;99969.16;5075515;28;19936;-75
2023/03/18 09:10:37;;;;;;;;;;;;;;;7.28;55.96;99975.31;5075353;28;19913;-75
2023/03/18 09:13:04;;;;;;;;;;;;;;;7.34;56.28;99974.09;5075377;28;20353;-75
2023/03/18 09:15:30;;;;;;;;;;;;;;;7.51;55.20;99973.56;5075769;28;20011;-74
2023/03/18 09:17:55;;;;;;;;;;;;;;;7.24;55.79;99977.03;5075368;28;19999;-74
2023/03/18 09:20:21;;;;;;;;;;;;;;;7.44;56.09;99982.31;5074549;28;19920;-75
2023/03/18 09:22:46;;;;;;;;;;;;;;;7.45;55.45;99977.56;5074959;28;19956;-75
2023/03/18 09:25:12;;;;;;;;;;;;;;;7.44;54.79;99978.72;5075196;28;20345;-74
2023/03/18 09:27:37;;;;;;;;;;;;;;;7.46;53.64;99976.44;5075510;28;20007;-75
2023/03/18 09:30:03;;;;;;;;;;;;;;;7.49;53.29;99977.81;5075074;28;19948;-75
2023/03/18 09:32:29;;;;;;;;;;;;;;;7.65;53.18;99975.59;5074427;28;19920;-74
2023/03/18 09:34:54;;;;;;;;;;;;;;;7.70;53.30;99976.34;5075066;28;20007;-74
2023/03/18 09:37:20;;;;;;;;;;;;;;;7.71;53.96;99977.16;5074768;28;19916;-74
2023/03/18 09:39:50;;;;;;;;;;;;;;;7.70;53.74;99978.31;5075323;28;20476;-75
2023/03/18 09:42:35;;;;;;;;;;;;;;;7.83;52.56;99985.03;5073189;28;19969;-75
2023/03/18 09:45:04;;;;;;;;;;;;;;;7.82;52.38;99977.81;5074736;28;19950;-75
2023/03/18 09:47:43;;;;;;;;;;;;;;;7.88;51.60;99979.41;5074621;28;20414;-75
2023/03/18 09:50:26;;;;;;;;;;;;;;;7.75;51.59;99977.41;5074659;28;19919;-75
2023/03/18 09:52:57;;;;;;;;;;;;;;;7.77;50.21;99994.63;5084291;28;19916;-74
2023/03/18 09:55:26;;;;;;;;;;;;;;;7.78;51.12;99980.38;5080202;28;20310;-74
2023/03/18 09:57:53;;;;;;;;;;;;;;;7.97;49.63;99985.09;5074389;28;20379;-75
2023/03/18 10:00:27;;;;;;;;;;;;;;;7.83;50.12;99991.44;5074441;28;19962;-74
2023/03/18 10:02:56;;;;;;;;;;;;;;;7.79;48.55;99990.41;5072911;28;19917;-74
2023/03/18 10:05:29;;;;;;;;;;;;;;;7.77;48.56;99989.88;5074559;28;20428;-74
2023/03/18 10:07:57;;;;;;;;;;;;;;;7.81;51.77;99995.66;5072976;28;19912;-75
2023/03/18 10:10:33;;;;;;;;;;;;;;;7.93;49.55;99993.22;5073115;28;20254;-75
2023/03/18 10:13:09;;;;;;;;;;;;;;;7.95;50.82;99998.50;5091192;28;19912;-75
2023/03/18 10:15:40;;;;;;;;;;;;;;;7.91;50.23;99995.50;5112445;28;20427;-75
2023/03/18 10:18:08;;;;;;;;;;;;;;;8.04;51.22;99996.69;5114801;28;19970;-74
2023/03/18 10:20:58;;;;;;;;;;;;;;;8.17;51.84;99995.06;5082544;28;19924;-74
2023/03/18 10:23:38;;;;;;;;;;;;;;;7.93;51.02;99992.41;5073871;28;19917;-75
2023/03/18 10:26:10;;;;;;;;;;;;;;;8.08;49.42;99989.34;5073967;28;19912;-75
2023/03/18 10:28:41;;;;;;;;;;;;;;;8.13;49.57;100005.16;5082315;28;19916;-75
2023/03/18 10:31:15;;;;;;;;;;;;;;;8.27;49.56;99996.84;5094195;28;19912;-75
2023/03/18 10:33:40;;;;;;;;;;;;;;;8.31;50.99;99997.03;5094079;28;20012;-75
2023/03/18 10:36:06;;;;;;;;;;;;;;;8.32;51.47;99996.75;5084459;28;19962;-75
2023/03/18 10:38:35;;;;;;;;;;;;;;;8.29;51.47;100000.97;5078362;28;20375;-74
2023/03/18 10:41:00;;;;;;;;;;;;;;;8.31;50.00;100005.41;5090671;28;19977;-70
2023/03/18 10:43:29;;;;;;;;;;;;;;;8.43;50.27;100001.00;5083260;28;19925;-72
2023/03/18 10:46:06;;;;;;;;;;;;;;;8.39;49.92;99997.19;5092922;28;19912;-70
2023/03/18 10:48:37;;;;;;;;;;;;;;;8.43;48.52;99998.22;5094366;28;19933;-72
2023/03/18 10:51:21;;;;;;;;;;;;;;;8.65;47.15;99988.34;5080774;28;19931;-70
2023/03/18 10:53:46;;;;;;;;;;;;;;;8.72;48.85;99990.72;5075076;28;19932;-71
2023/03/18 10:56:13;;;;;;;;;;;;;;;8.81;46.64;99988.03;5081229;28;19920;-70
2023/03/18 10:58:40;;;;;;;;;;;;;;;8.81;46.23;99985.25;5103439;28;19920;-73
2023/03/18 11:01:06;;;;;;;;;;;;;;;8.92;45.76;99992.25;5099830;28;19941;-74
2023/03/18 11:03:33;;;;;;;;;;;;;;;8.74;46.39;99999.59;5090352;28;19920;-72
2023/03/18 11:06:00;;;;;;;;;;;;;;;8.72;47.09;99985.16;5078250;28;19920;-73
2023/03/18 11:08:28;;;;;;;;;;;;;;;8.66;46.93;99990.00;5081445;28;19928;-73
2023/03/18 11:10:53;;;;;;;;;;;;;;;8.78;47.88;99988.66;5078911;28;19922;-72
2023/03/18 11:13:20;;;;;;;;;;;;;;;8.69;45.79;99988.56;5087736;28;20378;-75
2023/03/18 11:15:55;;;;;;;;;;;;;;;8.68;46.43;99995.25;5082422;28;20003;-74
2023/03/18 11:18:22;;;;;;;;;;;;;;;8.99;48.00;99995.47;5102736;27;19924;-74
2023/03/18 11:20:54;;;;;;;;;;;;;;;9.21;45.68;99996.66;5076356;28;19922;-74
2023/03/18 11:23:48;;;;;;;;;;;;;;;9.05;45.64;99989.75;5076954;28;19971;-74
2023/03/18 11:26:19;;;;;;;;;;;;;;;9.13;47.10;99997.41;5077720;28;20429;-73
2023/03/18 11:28:44;;;;;;;;;;;;;;;9.48;45.80;99991.31;5082654;28;20322;-75
2023/03/18 11:31:15;;;;;;;;;;;;;;;9.33;45.79;99990.53;5081441;28;19924;-74
2023/03/18 11:33:40;;;;;;;;;;;;;;;9.37;47.07;99996.34;5083127;28;20345;-74
2023/03/18 11:36:08;;;;;;;;;;;;;;;9.15;47.86;99992.34;5081891;28;19917;-74
2023/03/18 11:38:35;;;;;;;;;;;;;;;9.33;47.54;99987.75;5069860;28;20050;-73
2023/03/18 11:41:12;;;;;;;;;;;;;;;9.27;45.09;99997.38;5074983;28;19990;-74
2023/03/18 11:43:38;;;;;;;;;;;;;;;9.17;45.60;99989.22;5095138;28;19927;-74
2023/03/18 11:46:03;;;;;;;;;;;;;;;9.11;45.65;99986.56;5091812;28;19924;-73
2023/03/18 11:48:30;;;;;;;;;;;;;;;9.07;46.62;99981.91;5074535;28;19916;-74
2023/03/18 11:51:02;;;;;;;;;;;;;;;8.92;46.86;99989.47;5079219;28;19923;-74
2023/03/18 11:53:30;;;;;;;;;;;;;;;8.93;47.88;99991.13;5091178;28;19960;-74
2023/03/18 11:55:55;;;;;;;;;;;;;;;8.90;47.35;99988.97;5072172;28;19919;-74
2023/03/18 11:58:21;;;;;;;;;;;;;;;8.82;48.23;99989.69;5079222;28;19920;-74
2023/03/18 12:00:49;;;;;;;;;;;;;;;8.89;46.38;99987.31;5090557;28;19978;-74
2023/03/18 12:03:23;;;;;;;;;;;;;;;9.02;47.24;99984.81;5091576;28;20420;-74
2023/03/18 12:05:57;;;;;;;;;;;;;;;8.95;48.41;99977.69;5086732;28;20310;-74
2023/03/18 12:08:35;;;;;;;;;;;;;;;9.09;45.42;99979.63;5070597;28;20018;-74
2023/03/18 12:11:05;;;;;;;;;;;;;;;9.47;45.97;99981.31;5071672;28;19920;-74
2023/03/18 12:13:36;;;;;;;;;;;;;;;9.43;45.85;99988.66;5071281;28;19931;-74
2023/03/18 12:16:04;;;;;;;;;;;;;;;9.27;45.46;99986.19;5084853;28;19920;-74
2023/03/18 12:18:43;;;;;;;;;;;;;;;9.29;45.67;99978.38;5075523;28;19923;-74
2023/03/18 12:21:25;;;;;;;;;;;;;;;9.13;45.27;99983.47;5072179;28;20424;-74
2023/03/18 12:24:11;;;;;;;;;;;;;;;9.30;45.78;99980.00;5077373;28;19943;-73
2023/03/18 12:26:44;;;;;;;;;;;;;;;9.32;46.81;99972.16;5077287;28;19912;-74
2023/03/18 12:29:28;;;;;;;;;;;;;;;9.72;45.68;99974.28;5087786;28;19985;-74
2023/03/18 12:31:58;;;;;;;;;;;;;;;10.05;45.19;99984.38;5085032;28;19967;-74
2023/03/18 12:34:23;;;;;;;;;;;;;;;9.88;45.88;99982.28;5078025;28;20415;-73
2023/03/18 12:36:59;;;;;;;;;;;;;;;9.76;43.55;99980.03;5086025;28;19949;-74
2023/03/18 12:39:44;;;;;;;;;;;;;;;9.93;44.13;99977.38;5071354;28;20330;-74
2023/03/18 12:42:16;;;;;;;;;;;;;;;9.97;45.08;99983.97;5075439;28;19932;-74
2023/03/18 12:44:51;;;;;;;;;;;;;;;9.89;43.68;99981.13;5073055;28;20361;-74
2023/03/18 12:47:21;;;;;;;;;;;;;;;10.04;45.57;99980.75;5071108;28;19920;-74
2023/03/18 12:49:51;;;;;;;;;;;;;;;9.89;44.49;99984.72;5090380;28;19912;-74
2023/03/18 12:52:19;;;;;;;;;;;;;;;9.88;44.20;99985.06;5086216;28;19916;-74
2023/03/18 12:55:06;;;;;;;;;;;;;;;10.15;43.73;99969.28;5100150;28;20306;-74
2023/03/18 12:57:44;;;;;;;;;;;;;;;10.31;43.25;99956.53;5079233;28;19916;-74
2023/03/18 13:00:22;;;;;;;;;;;;;;;10.21;42.77;99956.84;5088231;28;19916;-74